sensor_id;sensor_type;location;lat;lon;timestamp;temperature;humidity
21149;DHT22;10732;51.472;6.466;2023-05-07T00:00:32;15.00;99.90
21149;DHT22;10732;51.472;6.466;2023-05-07T00:02:59;15.00;99.90
21149;DHT22;10732;51.472;6.466;2023-05-07T00:05:25;14.90;99.90
21149;DHT22;10732;51.472;6.466;2023-05-07T00:07:51;15.00;99.90
21149;DHT22;10732;51.472;6.466;2023-05-07T00:10:18;15.00;99.90
21149;DHT22;10732;51.472;6.466;2023-05-07T00:12:43;15.00;99.90
21149;DHT22;10732;51.472;6.466;2023-05-07T00:15:09;14.90;99.90
21149;DHT22;10732;51.472;6.466;2023-05-07T00:17:35;15.00;99.90
21149;DHT22;10732;51.472;6.466;2023-05-07T00:20:02;14.90;99.90
21149;DHT22;10732;51.472;6.466;2023-05-07T00:22:28;14.90;99.90
21149;DHT22;10732;51.472;6.466;2023-05-07T00:24:55;14.90;99.90
21149;DHT22;10732;51.472;6.466;2023-05-07T00:27:21;14.90;99.90
21149;DHT22;10732;51.472;6.466;2023-05-07T00:29:47;14.90;99.90
21149;DHT22;10732;51.472;6.466;2023-05-07T00:32:12;14.90;99.90
21149;DHT22;10732;51.472;6.466;2023-05-07T00:34:38;14.90;99.90
21149;DHT22;10732;51.472;6.466;2023-05-07T00:37:05;14.80;99.90
21149;DHT22;10732;51.472;6.466;2023-05-07T00:39:33;14.70;99.90
21149;DHT22;10732;51.472;6.466;2023-05-07T00:41:58;14.70;99.90
21149;DHT22;10732;51.472;6.466;2023-05-07T00:44:24;14.70;99.90
21149;DHT22;10732;51.472;6.466;2023-05-07T00:46:50;14.70;99.90
21149;DHT22;10732;51.472;6.466;2023-05-07T00:49:16;14.80;99.90
21149;DHT22;10732;51.472;6.466;2023-05-07T00:51:42;14.70;99.90
21149;DHT22;10732;51.472;6.466;2023-05-07T00:54:08;14.70;99.90
21149;DHT22;10732;51.472;6.466;2023-05-07T00:56:34;14.70;99.90
21149;DHT22;10732;51.472;6.466;2023-05-07T00:59:01;14.70;99.90
21149;DHT22;10732;51.472;6.466;2023-05-07T01:01:27;14.80;99.90
21149;DHT22;10732;51.472;6.466;2023-05-07T01:03:53;14.70;99.90
21149;DHT22;10732;51.472;6.466;2023-05-07T01:06:20;14.70;99.90
21149;DHT22;10732;51.472;6.466;2023-05-07T01:08:46;14.70;99.90
21149;DHT22;10732;51.472;6.466;2023-05-07T01:11:13;14.70;99.90
21149;DHT22;10732;51.472;6.466;2023-05-07T01:13:39;14.70;99.90
21149;DHT22;10732;51.472;6.466;2023-05-07T01:16:06;14.60;99.90
21149;DHT22;10732;51.472;6.466;2023-05-07T01:18:32;14.60;99.90
21149;DHT22;10732;51.472;6.466;2023-05-07T01:20:59;14.60;99.90
21149;DHT22;10732;51.472;6.466;2023-05-07T01:23:25;14.60;99.90
21149;DHT22;10732;51.472;6.466;2023-05-07T01:25:53;14.60;99.90
21149;DHT22;10732;51.472;6.466;2023-05-07T01:28:18;14.50;99.90
21149;DHT22;10732;51.472;6.466;2023-05-07T01:30:47;14.50;99.90
21149;DHT22;10732;51.472;6.466;2023-05-07T01:33:15;14.50;99.90
21149;DHT22;10732;51.472;6.466;2023-05-07T01:35:46;14.50;99.90
21149;DHT22;10732;51.472;6.466;2023-05-07T01:38:13;14.40;99.90
21149;DHT22;10732;51.472;6.466;2023-05-07T01:40:39;14.40;99.90
21149;DHT22;10732;51.472;6.466;2023-05-07T01:43:05;14.50;99.90
21149;DHT22;10732;51.472;6.466;2023-05-07T01:45:31;14.50;99.90
21149;DHT22;10732;51.472;6.466;2023-05-07T01:47:58;14.50;99.90
21149;DHT22;10732;51.472;6.466;2023-05-07T01:50:25;14.40;99.90
21149;DHT22;10732;51.472;6.466;2023-05-07T01:52:51;14.40;99.90
21149;DHT22;10732;51.472;6.466;2023-05-07T01:55:17;14.40;99.90
21149;DHT22;10732;51.472;6.466;2023-05-07T01:57:42;14.40;99.90
21149;DHT22;10732;51.472;6.466;2023-05-07T02:00:08;14.40;99.90
21149;DHT22;10732;51.472;6.466;2023-05-07T02:02:34;14.40;99.90
21149;DHT22;10732;51.472;6.466;2023-05-07T02:05:00;14.40;99.90
21149;DHT22;10732;51.472;6.466;2023-05-07T02:07:27;14.40;99.90
21149;DHT22;10732;51.472;6.466;2023-05-07T02:09:53;14.40;99.90
21149;DHT22;10732;51.472;6.466;2023-05-07T02:12:20;14.50;99.90
21149;DHT22;10732;51.472;6.466;2023-05-07T02:14:46;14.50;99.90
21149;DHT22;10732;51.472;6.466;2023-05-07T02:17:12;14.40;99.90
21149;DHT22;10732;51.472;6.466;2023-05-07T02:19:37;14.40;99.90
21149;DHT22;10732;51.472;6.466;2023-05-07T02:22:03;14.40;99.90
21149;DHT22;10732;51.472;6.466;2023-05-07T02:24:28;14.50;99.90
21149;DHT22;10732;51.472;6.466;2023-05-07T02:26:54;14.40;99.90
21149;DHT22;10732;51.472;6.466;2023-05-07T02:29:19;14.30;99.90
21149;DHT22;10732;51.472;6.466;2023-05-07T02:31:45;14.30;99.90
21149;DHT22;10732;51.472;6.466;2023-05-07T02:34:10;14.30;99.90
21149;DHT22;10732;51.472;6.466;2023-05-07T02:36:36;14.30;99.90
21149;DHT22;10732;51.472;6.466;2023-05-07T02:39:02;14.20;99.90
21149;DHT22;10732;51.472;6.466;2023-05-07T02:41:28;14.10;99.90
21149;DHT22;10732;51.472;6.466;2023-05-07T02:43:53;14.10;99.90
21149;DHT22;10732;51.472;6.466;2023-05-07T02:46:19;14.00;99.90
21149;DHT22;10732;51.472;6.466;2023-05-07T02:48:44;14.00;99.90
21149;DHT22;10732;51.472;6.466;2023-05-07T02:51:10;13.90;99.90
21149;DHT22;10732;51.472;6.466;2023-05-07T02:53:36;13.90;99.90
21149;DHT22;10732;51.472;6.466;2023-05-07T02:56:02;14.00;99.90
21149;DHT22;10732;51.472;6.466;2023-05-07T02:58:28;14.00;99.90
21149;DHT22;10732;51.472;6.466;2023-05-07T03:00:54;14.00;99.90
21149;DHT22;10732;51.472;6.466;2023-05-07T03:03:22;14.10;99.90
21149;DHT22;10732;51.472;6.466;2023-05-07T03:05:48;14.10;99.90
21149;DHT22;10732;51.472;6.466;2023-05-07T03:08:13;14.00;99.90
21149;DHT22;10732;51.472;6.466;2023-05-07T03:10:39;13.90;99.90
21149;DHT22;10732;51.472;6.466;2023-05-07T03:13:05;13.90;99.90
21149;DHT22;10732;51.472;6.466;2023-05-07T03:15:30;13.90;99.90
21149;DHT22;10732;51.472;6.466;2023-05-07T03:17:56;13.80;99.90
21149;DHT22;10732;51.472;6.466;2023-05-07T03:20:21;13.80;99.90
21149;DHT22;10732;51.472;6.466;2023-05-07T03:22:47;13.80;99.90
21149;DHT22;10732;51.472;6.466;2023-05-07T03:25:13;13.80;99.90
21149;DHT22;10732;51.472;6.466;2023-05-07T03:27:40;13.80;99.90
21149;DHT22;10732;51.472;6.466;2023-05-07T03:30:07;13.80;99.90
21149;DHT22;10732;51.472;6.466;2023-05-07T03:32:34;13.80;99.90
21149;DHT22;10732;51.472;6.466;2023-05-07T03:35:00;13.80;99.90
21149;DHT22;10732;51.472;6.466;2023-05-07T03:37:26;13.80;99.90
21149;DHT22;10732;51.472;6.466;2023-05-07T03:39:51;13.80;99.90
21149;DHT22;10732;51.472;6.466;2023-05-07T03:42:17;13.80;99.90
21149;DHT22;10732;51.472;6.466;2023-05-07T03:44:44;13.90;99.90
21149;DHT22;10732;51.472;6.466;2023-05-07T03:47:09;13.80;99.90
21149;DHT22;10732;51.472;6.466;2023-05-07T03:49:35;13.80;99.90
21149;DHT22;10732;51.472;6.466;2023-05-07T03:52:01;13.80;99.90
21149;DHT22;10732;51.472;6.466;2023-05-07T03:54:27;13.70;99.90
21149;DHT22;10732;51.472;6.466;2023-05-07T03:56:52;13.80;99.90
21149;DHT22;10732;51.472;6.466;2023-05-07T03:59:18;13.80;99.90
21149;DHT22;10732;51.472;6.466;2023-05-07T04:01:43;13.80;99.90
21149;DHT22;10732;51.472;6.466;2023-05-07T04:04:09;13.80;99.90
21149;DHT22;10732;51.472;6.466;2023-05-07T04:06:34;13.80;99.90
21149;DHT22;10732;51.472;6.466;2023-05-07T04:09:00;13.80;99.90
21149;DHT22;10732;51.472;6.466;2023-05-07T04:11:26;13.70;99.90
21149;DHT22;10732;51.472;6.466;2023-05-07T04:13:51;13.70;99.90
21149;DHT22;10732;51.472;6.466;2023-05-07T04:16:17;13.60;99.90
21149;DHT22;10732;51.472;6.466;2023-05-07T04:18:43;13.60;99.90
21149;DHT22;10732;51.472;6.466;2023-05-07T04:21:19;13.60;99.90
21149;DHT22;10732;51.472;6.466;2023-05-07T04:23:46;13.70;99.90
21149;DHT22;10732;51.472;6.466;2023-05-07T04:26:12;13.60;99.90
21149;DHT22;10732;51.472;6.466;2023-05-07T04:28:38;13.70;99.90
21149;DHT22;10732;51.472;6.466;2023-05-07T04:31:04;13.60;99.90
21149;DHT22;10732;51.472;6.466;2023-05-07T04:33:30;13.60;99.90
21149;DHT22;10732;51.472;6.466;2023-05-07T04:35:56;13.60;99.90
21149;DHT22;10732;51.472;6.466;2023-05-07T04:38:22;13.60;99.90
21149;DHT22;10732;51.472;6.466;2023-05-07T04:40:48;13.60;99.90
21149;DHT22;10732;51.472;6.466;2023-05-07T04:43:14;13.70;99.90
21149;DHT22;10732;51.472;6.466;2023-05-07T04:45:40;13.70;99.90
21149;DHT22;10732;51.472;6.466;2023-05-07T04:48:07;13.70;99.90
21149;DHT22;10732;51.472;6.466;2023-05-07T04:50:32;13.70;99.90
21149;DHT22;10732;51.472;6.466;2023-05-07T04:52:58;13.80;99.90
21149;DHT22;10732;51.472;6.466;2023-05-07T04:55:24;13.90;99.90
21149;DHT22;10732;51.472;6.466;2023-05-07T04:57:49;14.10;99.90
21149;DHT22;10732;51.472;6.466;2023-05-07T05:00:15;14.00;99.90
21149;DHT22;10732;51.472;6.466;2023-05-07T05:02:41;14.20;99.90
21149;DHT22;10732;51.472;6.466;2023-05-07T05:05:07;14.20;99.90
21149;DHT22;10732;51.472;6.466;2023-05-07T05:07:33;14.40;99.90
21149;DHT22;10732;51.472;6.466;2023-05-07T05:09:58;14.80;99.90
21149;DHT22;10732;51.472;6.466;2023-05-07T05:12:24;15.10;99.90
21149;DHT22;10732;51.472;6.466;2023-05-07T05:14:50;15.60;99.90
21149;DHT22;10732;51.472;6.466;2023-05-07T05:17:15;16.50;99.90
21149;DHT22;10732;51.472;6.466;2023-05-07T05:19:41;17.60;99.90
21149;DHT22;10732;51.472;6.466;2023-05-07T05:22:06;18.40;99.90
21149;DHT22;10732;51.472;6.466;2023-05-07T05:24:32;18.70;99.90
21149;DHT22;10732;51.472;6.466;2023-05-07T05:26:57;18.80;99.90
21149;DHT22;10732;51.472;6.466;2023-05-07T05:29:25;18.30;99.90
21149;DHT22;10732;51.472;6.466;2023-05-07T05:31:50;18.60;99.90
21149;DHT22;10732;51.472;6.466;2023-05-07T05:34:16;18.50;99.90
21149;DHT22;10732;51.472;6.466;2023-05-07T05:36:43;19.20;99.90
21149;DHT22;10732;51.472;6.466;2023-05-07T05:39:08;19.30;99.90
21149;DHT22;10732;51.472;6.466;2023-05-07T05:41:34;19.40;99.90
21149;DHT22;10732;51.472;6.466;2023-05-07T05:44:00;19.30;99.90
21149;DHT22;10732;51.472;6.466;2023-05-07T05:46:25;20.10;99.90
21149;DHT22;10732;51.472;6.466;2023-05-07T05:48:51;19.90;99.90
21149;DHT22;10732;51.472;6.466;2023-05-07T05:51:16;20.20;99.90
21149;DHT22;10732;51.472;6.466;2023-05-07T05:53:42;20.60;99.90
21149;DHT22;10732;51.472;6.466;2023-05-07T05:56:07;19.90;99.90
21149;DHT22;10732;51.472;6.466;2023-05-07T05:58:33;20.20;99.90
21149;DHT22;10732;51.472;6.466;2023-05-07T06:00:59;21.10;99.90
21149;DHT22;10732;51.472;6.466;2023-05-07T06:03:24;20.70;99.90
21149;DHT22;10732;51.472;6.466;2023-05-07T06:05:50;20.40;99.90
21149;DHT22;10732;51.472;6.466;2023-05-07T06:08:15;20.40;99.90
21149;DHT22;10732;51.472;6.466;2023-05-07T06:10:41;19.90;99.90
21149;DHT22;10732;51.472;6.466;2023-05-07T06:13:07;19.40;99.90
21149;DHT22;10732;51.472;6.466;2023-05-07T06:15:32;19.30;99.90
21149;DHT22;10732;51.472;6.466;2023-05-07T06:17:58;18.40;99.90
21149;DHT22;10732;51.472;6.466;2023-05-07T06:20:23;18.00;99.90
21149;DHT22;10732;51.472;6.466;2023-05-07T06:22:49;17.80;99.90
21149;DHT22;10732;51.472;6.466;2023-05-07T06:25:15;17.80;99.90
21149;DHT22;10732;51.472;6.466;2023-05-07T06:27:40;17.80;99.90
21149;DHT22;10732;51.472;6.466;2023-05-07T06:30:06;18.00;99.90
21149;DHT22;10732;51.472;6.466;2023-05-07T06:32:32;18.10;99.90
21149;DHT22;10732;51.472;6.466;2023-05-07T06:34:58;17.70;99.90
21149;DHT22;10732;51.472;6.466;2023-05-07T06:37:23;18.00;99.90
21149;DHT22;10732;51.472;6.466;2023-05-07T06:39:49;18.40;99.90
21149;DHT22;10732;51.472;6.466;2023-05-07T06:42:15;18.30;99.90
21149;DHT22;10732;51.472;6.466;2023-05-07T06:44:40;18.30;99.90
21149;DHT22;10732;51.472;6.466;2023-05-07T06:47:06;18.20;99.90
21149;DHT22;10732;51.472;6.466;2023-05-07T06:49:31;17.80;99.90
21149;DHT22;10732;51.472;6.466;2023-05-07T06:51:57;17.50;99.90
21149;DHT22;10732;51.472;6.466;2023-05-07T06:54:23;17.50;99.90
21149;DHT22;10732;51.472;6.466;2023-05-07T06:56:49;17.40;99.90
21149;DHT22;10732;51.472;6.466;2023-05-07T06:59:15;17.30;99.90
21149;DHT22;10732;51.472;6.466;2023-05-07T07:01:41;17.60;99.90
21149;DHT22;10732;51.472;6.466;2023-05-07T07:04:06;17.60;99.90
21149;DHT22;10732;51.472;6.466;2023-05-07T07:06:32;17.60;99.90
21149;DHT22;10732;51.472;6.466;2023-05-07T07:08:58;18.00;99.90
21149;DHT22;10732;51.472;6.466;2023-05-07T07:11:24;18.20;99.90
21149;DHT22;10732;51.472;6.466;2023-05-07T07:13:49;18.80;99.90
21149;DHT22;10732;51.472;6.466;2023-05-07T07:16:16;19.30;99.90
21149;DHT22;10732;51.472;6.466;2023-05-07T07:18:42;19.60;99.90
21149;DHT22;10732;51.472;6.466;2023-05-07T07:21:07;19.60;99.90
21149;DHT22;10732;51.472;6.466;2023-05-07T07:23:33;20.10;99.90
21149;DHT22;10732;51.472;6.466;2023-05-07T07:25:59;21.10;99.90
21149;DHT22;10732;51.472;6.466;2023-05-07T07:28:24;21.00;99.90
21149;DHT22;10732;51.472;6.466;2023-05-07T07:30:50;21.00;99.90
21149;DHT22;10732;51.472;6.466;2023-05-07T07:33:15;20.30;99.90
21149;DHT22;10732;51.472;6.466;2023-05-07T07:35:41;19.80;99.90
21149;DHT22;10732;51.472;6.466;2023-05-07T07:38:07;20.00;99.90
21149;DHT22;10732;51.472;6.466;2023-05-07T07:40:34;20.20;99.90
21149;DHT22;10732;51.472;6.466;2023-05-07T07:43:00;20.10;99.90
21149;DHT22;10732;51.472;6.466;2023-05-07T07:45:26;20.20;99.90
21149;DHT22;10732;51.472;6.466;2023-05-07T07:47:52;21.30;99.90
21149;DHT22;10732;51.472;6.466;2023-05-07T07:50:18;21.30;99.90
21149;DHT22;10732;51.472;6.466;2023-05-07T07:52:44;21.50;99.90
21149;DHT22;10732;51.472;6.466;2023-05-07T07:55:09;22.00;99.90
21149;DHT22;10732;51.472;6.466;2023-05-07T07:57:35;22.30;99.90
21149;DHT22;10732;51.472;6.466;2023-05-07T08:00:01;22.00;99.90
21149;DHT22;10732;51.472;6.466;2023-05-07T08:02:26;21.50;99.90
21149;DHT22;10732;51.472;6.466;2023-05-07T08:04:52;20.50;99.90
21149;DHT22;10732;51.472;6.466;2023-05-07T08:07:17;19.80;99.90
21149;DHT22;10732;51.472;6.466;2023-05-07T08:09:46;19.60;99.90
21149;DHT22;10732;51.472;6.466;2023-05-07T08:12:12;19.40;99.90
21149;DHT22;10732;51.472;6.466;2023-05-07T08:14:38;19.80;99.90
21149;DHT22;10732;51.472;6.466;2023-05-07T08:17:03;20.30;99.90
21149;DHT22;10732;51.472;6.466;2023-05-07T08:19:29;20.60;99.90
21149;DHT22;10732;51.472;6.466;2023-05-07T08:21:55;21.20;99.90
21149;DHT22;10732;51.472;6.466;2023-05-07T08:24:21;21.60;99.90
21149;DHT22;10732;51.472;6.466;2023-05-07T08:26:46;22.00;99.90
21149;DHT22;10732;51.472;6.466;2023-05-07T08:29:12;22.60;99.90
21149;DHT22;10732;51.472;6.466;2023-05-07T08:31:37;23.40;99.90
21149;DHT22;10732;51.472;6.466;2023-05-07T08:34:06;23.90;99.90
21149;DHT22;10732;51.472;6.466;2023-05-07T08:36:32;23.30;99.90
21149;DHT22;10732;51.472;6.466;2023-05-07T08:38:57;24.00;99.90
21149;DHT22;10732;51.472;6.466;2023-05-07T08:41:23;24.20;99.90
21149;DHT22;10732;51.472;6.466;2023-05-07T08:43:50;24.70;99.90
21149;DHT22;10732;51.472;6.466;2023-05-07T08:46:20;24.60;99.90
21149;DHT22;10732;51.472;6.466;2023-05-07T08:48:50;23.90;99.90
21149;DHT22;10732;51.472;6.466;2023-05-07T08:51:18;23.80;99.90
21149;DHT22;10732;51.472;6.466;2023-05-07T08:53:45;24.10;99.90
21149;DHT22;10732;51.472;6.466;2023-05-07T08:56:11;25.10;99.90
21149;DHT22;10732;51.472;6.466;2023-05-07T08:58:37;24.90;99.90
21149;DHT22;10732;51.472;6.466;2023-05-07T09:01:07;24.60;99.90
21149;DHT22;10732;51.472;6.466;2023-05-07T09:03:33;24.40;99.90
21149;DHT22;10732;51.472;6.466;2023-05-07T09:05:58;23.50;99.90
21149;DHT22;10732;51.472;6.466;2023-05-07T09:08:26;23.40;99.90
21149;DHT22;10732;51.472;6.466;2023-05-07T09:10:52;23.50;99.90
21149;DHT22;10732;51.472;6.466;2023-05-07T09:13:18;23.30;99.90
21149;DHT22;10732;51.472;6.466;2023-05-07T09:15:43;23.70;99.90
21149;DHT22;10732;51.472;6.466;2023-05-07T09:18:09;24.10;99.90
21149;DHT22;10732;51.472;6.466;2023-05-07T09:20:36;24.50;99.90
21149;DHT22;10732;51.472;6.466;2023-05-07T09:23:02;24.50;99.90
21149;DHT22;10732;51.472;6.466;2023-05-07T09:25:29;23.70;99.90
21149;DHT22;10732;51.472;6.466;2023-05-07T09:27:55;24.50;99.90
21149;DHT22;10732;51.472;6.466;2023-05-07T09:30:21;24.50;99.90
21149;DHT22;10732;51.472;6.466;2023-05-07T09:32:46;24.70;99.90
21149;DHT22;10732;51.472;6.466;2023-05-07T09:35:16;25.60;99.90
21149;DHT22;10732;51.472;6.466;2023-05-07T09:37:42;25.70;99.90
21149;DHT22;10732;51.472;6.466;2023-05-07T09:40:08;26.40;99.90
21149;DHT22;10732;51.472;6.466;2023-05-07T09:42:45;26.90;99.90
21149;DHT22;10732;51.472;6.466;2023-05-07T09:45:12;26.40;99.90
21149;DHT22;10732;51.472;6.466;2023-05-07T09:47:39;26.60;99.90
21149;DHT22;10732;51.472;6.466;2023-05-07T09:50:08;27.10;99.90
21149;DHT22;10732;51.472;6.466;2023-05-07T09:52:36;26.70;99.90
21149;DHT22;10732;51.472;6.466;2023-05-07T09:55:02;27.30;99.90
21149;DHT22;10732;51.472;6.466;2023-05-07T09:57:29;26.20;99.90
21149;DHT22;10732;51.472;6.466;2023-05-07T09:59:56;25.70;99.90
21149;DHT22;10732;51.472;6.466;2023-05-07T10:02:24;25.80;99.90
21149;DHT22;10732;51.472;6.466;2023-05-07T10:04:51;25.30;99.90
21149;DHT22;10732;51.472;6.466;2023-05-07T10:07:17;25.20;99.90
21149;DHT22;10732;51.472;6.466;2023-05-07T10:09:43;24.60;99.90
21149;DHT22;10732;51.472;6.466;2023-05-07T10:12:10;25.00;99.90
21149;DHT22;10732;51.472;6.466;2023-05-07T10:14:35;23.80;99.90
21149;DHT22;10732;51.472;6.466;2023-05-07T10:17:02;23.90;99.90
21149;DHT22;10732;51.472;6.466;2023-05-07T10:19:29;23.90;99.90
21149;DHT22;10732;51.472;6.466;2023-05-07T10:21:56;23.40;99.90
21149;DHT22;10732;51.472;6.466;2023-05-07T10:24:31;24.10;99.90
21149;DHT22;10732;51.472;6.466;2023-05-07T10:26:59;24.50;99.90
21149;DHT22;10732;51.472;6.466;2023-05-07T10:34:48;27.10;99.90
21149;DHT22;10732;51.472;6.466;2023-05-07T10:37:16;26.50;99.90
21149;DHT22;10732;51.472;6.466;2023-05-07T10:39:43;26.40;99.90
21149;DHT22;10732;51.472;6.466;2023-05-07T10:42:12;27.00;99.90
21149;DHT22;10732;51.472;6.466;2023-05-07T10:44:38;27.20;99.90
21149;DHT22;10732;51.472;6.466;2023-05-07T10:52:15;27.20;99.90
21149;DHT22;10732;51.472;6.466;2023-05-07T10:54:42;26.50;99.90
21149;DHT22;10732;51.472;6.466;2023-05-07T10:59:56;26.50;99.90
21149;DHT22;10732;51.472;6.466;2023-05-07T11:02:21;26.10;99.90
21149;DHT22;10732;51.472;6.466;2023-05-07T11:05:19;26.40;99.90
21149;DHT22;10732;51.472;6.466;2023-05-07T11:07:54;25.80;99.90
21149;DHT22;10732;51.472;6.466;2023-05-07T11:10:21;25.40;99.90
21149;DHT22;10732;51.472;6.466;2023-05-07T11:12:48;26.10;99.90
21149;DHT22;10732;51.472;6.466;2023-05-07T11:15:14;26.20;99.90
21149;DHT22;10732;51.472;6.466;2023-05-07T11:20:18;25.80;99.90
21149;DHT22;10732;51.472;6.466;2023-05-07T11:22:44;25.50;99.90
21149;DHT22;10732;51.472;6.466;2023-05-07T11:25:10;26.00;99.90
21149;DHT22;10732;51.472;6.466;2023-05-07T11:27:36;25.70;99.90
21149;DHT22;10732;51.472;6.466;2023-05-07T11:30:02;25.90;99.90
21149;DHT22;10732;51.472;6.466;2023-05-07T11:32:31;25.20;99.90
21149;DHT22;10732;51.472;6.466;2023-05-07T11:34:59;25.10;99.90
21149;DHT22;10732;51.472;6.466;2023-05-07T11:37:26;24.90;99.90
21149;DHT22;10732;51.472;6.466;2023-05-07T11:40:05;25.60;99.90
21149;DHT22;10732;51.472;6.466;2023-05-07T11:42:34;26.50;99.90
21149;DHT22;10732;51.472;6.466;2023-05-07T11:45:00;26.40;99.90
21149;DHT22;10732;51.472;6.466;2023-05-07T11:47:29;25.70;99.90
21149;DHT22;10732;51.472;6.466;2023-05-07T11:49:55;25.00;99.90
21149;DHT22;10732;51.472;6.466;2023-05-07T11:52:22;25.20;99.90
21149;DHT22;10732;51.472;6.466;2023-05-07T11:54:51;25.60;99.90
21149;DHT22;10732;51.472;6.466;2023-05-07T11:57:18;24.90;99.90
21149;DHT22;10732;51.472;6.466;2023-05-07T11:59:44;25.50;99.90
21149;DHT22;10732;51.472;6.466;2023-05-07T12:02:10;25.20;99.90
21149;DHT22;10732;51.472;6.466;2023-05-07T12:04:37;24.80;99.90
21149;DHT22;10732;51.472;6.466;2023-05-07T12:07:03;24.60;99.90
21149;DHT22;10732;51.472;6.466;2023-05-07T12:09:28;24.60;99.90
21149;DHT22;10732;51.472;6.466;2023-05-07T12:11:55;24.70;99.90
21149;DHT22;10732;51.472;6.466;2023-05-07T12:14:21;24.80;99.90
21149;DHT22;10732;51.472;6.466;2023-05-07T12:16:47;24.80;99.90
21149;DHT22;10732;51.472;6.466;2023-05-07T12:19:14;24.50;99.90
21149;DHT22;10732;51.472;6.466;2023-05-07T12:21:40;24.30;99.90
21149;DHT22;10732;51.472;6.466;2023-05-07T12:24:06;24.40;99.90
21149;DHT22;10732;51.472;6.466;2023-05-07T12:26:37;24.50;99.90
21149;DHT22;10732;51.472;6.466;2023-05-07T12:29:03;24.30;99.90
21149;DHT22;10732;51.472;6.466;2023-05-07T12:31:28;24.30;99.90
21149;DHT22;10732;51.472;6.466;2023-05-07T12:33:54;24.30;99.90
21149;DHT22;10732;51.472;6.466;2023-05-07T12:36:20;24.60;99.90
21149;DHT22;10732;51.472;6.466;2023-05-07T12:38:49;24.60;99.90
21149;DHT22;10732;51.472;6.466;2023-05-07T12:41:15;24.60;99.90
21149;DHT22;10732;51.472;6.466;2023-05-07T12:43:44;24.20;99.90
21149;DHT22;10732;51.472;6.466;2023-05-07T12:46:09;24.10;99.90
21149;DHT22;10732;51.472;6.466;2023-05-07T12:48:38;24.10;99.90
21149;DHT22;10732;51.472;6.466;2023-05-07T12:51:08;24.00;99.90
21149;DHT22;10732;51.472;6.466;2023-05-07T12:53:40;23.70;99.90
21149;DHT22;10732;51.472;6.466;2023-05-07T12:56:07;24.00;99.90
21149;DHT22;10732;51.472;6.466;2023-05-07T12:58:34;24.40;99.90
21149;DHT22;10732;51.472;6.466;2023-05-07T13:01:05;24.70;99.90
21149;DHT22;10732;51.472;6.466;2023-05-07T13:03:33;24.20;99.90
21149;DHT22;10732;51.472;6.466;2023-05-07T13:06:03;24.00;99.90
21149;DHT22;10732;51.472;6.466;2023-05-07T13:08:35;24.00;99.90
21149;DHT22;10732;51.472;6.466;2023-05-07T13:11:03;24.20;99.90
21149;DHT22;10732;51.472;6.466;2023-05-07T13:13:33;24.10;99.90
21149;DHT22;10732;51.472;6.466;2023-05-07T13:16:00;24.00;99.90
21149;DHT22;10732;51.472;6.466;2023-05-07T13:18:28;24.20;99.90
21149;DHT22;10732;51.472;6.466;2023-05-07T13:20:54;24.00;99.90
21149;DHT22;10732;51.472;6.466;2023-05-07T13:23:20;24.00;99.90
21149;DHT22;10732;51.472;6.466;2023-05-07T13:25:45;24.20;99.90
21149;DHT22;10732;51.472;6.466;2023-05-07T13:28:11;23.70;99.90
21149;DHT22;10732;51.472;6.466;2023-05-07T13:30:37;23.50;99.90
21149;DHT22;10732;51.472;6.466;2023-05-07T13:33:03;23.30;99.90
21149;DHT22;10732;51.472;6.466;2023-05-07T13:35:28;23.10;99.90
21149;DHT22;10732;51.472;6.466;2023-05-07T13:37:54;23.20;99.90
21149;DHT22;10732;51.472;6.466;2023-05-07T13:40:21;23.40;99.90
21149;DHT22;10732;51.472;6.466;2023-05-07T13:42:47;23.50;99.90
21149;DHT22;10732;51.472;6.466;2023-05-07T13:45:13;23.30;99.90
21149;DHT22;10732;51.472;6.466;2023-05-07T13:47:42;23.30;99.90
21149;DHT22;10732;51.472;6.466;2023-05-07T13:50:09;23.20;99.90
21149;DHT22;10732;51.472;6.466;2023-05-07T13:52:37;23.10;99.90
21149;DHT22;10732;51.472;6.466;2023-05-07T13:55:03;22.80;99.90
21149;DHT22;10732;51.472;6.466;2023-05-07T13:57:29;22.80;99.90
21149;DHT22;10732;51.472;6.466;2023-05-07T13:59:54;22.80;99.90
21149;DHT22;10732;51.472;6.466;2023-05-07T14:02:20;22.90;99.90
21149;DHT22;10732;51.472;6.466;2023-05-07T14:04:46;23.00;99.90
21149;DHT22;10732;51.472;6.466;2023-05-07T14:07:11;23.00;99.90
21149;DHT22;10732;51.472;6.466;2023-05-07T14:09:37;23.10;99.90
21149;DHT22;10732;51.472;6.466;2023-05-07T14:12:03;22.90;99.90
21149;DHT22;10732;51.472;6.466;2023-05-07T14:14:28;23.10;99.90
21149;DHT22;10732;51.472;6.466;2023-05-07T14:16:54;23.20;99.90
21149;DHT22;10732;51.472;6.466;2023-05-07T14:19:19;23.00;99.90
21149;DHT22;10732;51.472;6.466;2023-05-07T14:21:45;23.00;99.90
21149;DHT22;10732;51.472;6.466;2023-05-07T14:24:10;23.00;99.90
21149;DHT22;10732;51.472;6.466;2023-05-07T14:26:36;23.00;99.90
21149;DHT22;10732;51.472;6.466;2023-05-07T14:29:02;23.10;99.90
21149;DHT22;10732;51.472;6.466;2023-05-07T14:31:29;22.90;99.90
21149;DHT22;10732;51.472;6.466;2023-05-07T14:33:54;22.90;99.90
21149;DHT22;10732;51.472;6.466;2023-05-07T14:36:20;22.90;99.90
21149;DHT22;10732;51.472;6.466;2023-05-07T14:38:47;23.00;99.90
21149;DHT22;10732;51.472;6.466;2023-05-07T14:41:12;23.30;99.90
21149;DHT22;10732;51.472;6.466;2023-05-07T14:43:38;23.20;99.90
21149;DHT22;10732;51.472;6.466;2023-05-07T14:46:03;23.00;99.90
21149;DHT22;10732;51.472;6.466;2023-05-07T14:48:29;23.10;99.90
21149;DHT22;10732;51.472;6.466;2023-05-07T14:50:54;23.30;99.90
21149;DHT22;10732;51.472;6.466;2023-05-07T14:53:21;23.50;99.90
21149;DHT22;10732;51.472;6.466;2023-05-07T14:55:47;23.30;99.90
21149;DHT22;10732;51.472;6.466;2023-05-07T14:58:13;23.20;99.90
21149;DHT22;10732;51.472;6.466;2023-05-07T15:00:39;22.90;99.90
21149;DHT22;10732;51.472;6.466;2023-05-07T15:03:08;23.00;99.90
21149;DHT22;10732;51.472;6.466;2023-05-07T15:05:35;22.80;99.90
21149;DHT22;10732;51.472;6.466;2023-05-07T15:08:01;22.80;99.90
21149;DHT22;10732;51.472;6.466;2023-05-07T15:10:27;22.50;99.90
21149;DHT22;10732;51.472;6.466;2023-05-07T15:12:53;22.50;99.90
21149;DHT22;10732;51.472;6.466;2023-05-07T15:15:18;22.50;99.90
21149;DHT22;10732;51.472;6.466;2023-05-07T15:17:44;22.40;99.90
21149;DHT22;10732;51.472;6.466;2023-05-07T15:20:09;22.30;99.90
21149;DHT22;10732;51.472;6.466;2023-05-07T15:22:35;22.10;99.90
21149;DHT22;10732;51.472;6.466;2023-05-07T15:25:03;22.10;99.90
21149;DHT22;10732;51.472;6.466;2023-05-07T15:27:29;22.00;99.90
21149;DHT22;10732;51.472;6.466;2023-05-07T15:29:56;21.80;99.90
21149;DHT22;10732;51.472;6.466;2023-05-07T15:32:21;21.70;99.90
21149;DHT22;10732;51.472;6.466;2023-05-07T15:34:47;21.70;99.90
21149;DHT22;10732;51.472;6.466;2023-05-07T15:37:12;21.20;99.90
21149;DHT22;10732;51.472;6.466;2023-05-07T15:39:38;21.00;99.90